createdAt,value
2022-11-24T00:01:29.357Z,25.80
2022-11-24T00:03:59.039Z,28.08
2022-11-24T00:06:26.737Z,25.95
2022-11-24T00:08:54.326Z,29.15
2022-11-24T00:11:24.761Z,27.30
2022-11-24T00:13:52.668Z,34.22
2022-11-24T00:16:22.467Z,36.00
2022-11-24T00:18:51.132Z,35.30
2022-11-24T00:21:19.392Z,34.47
2022-11-24T00:23:47.599Z,34.33
2022-11-24T00:26:17.350Z,33.80
2022-11-24T00:28:45.828Z,37.92
2022-11-24T00:31:24.241Z,35.50
2022-11-24T00:33:53.419Z,38.17
2022-11-24T00:36:22.213Z,36.25
2022-11-24T00:38:56.215Z,34.15
2022-11-24T00:41:25.006Z,22.77
2022-11-24T00:43:52.940Z,28.13
2022-11-24T00:46:20.892Z,28.23
2022-11-24T00:48:48.198Z,26.17
2022-11-24T00:51:17.649Z,27.52
2022-11-24T00:53:45.285Z,29.90
2022-11-24T00:56:13.274Z,27.50
2022-11-24T00:58:40.688Z,31.60
2022-11-24T01:01:24.522Z,35.40
2022-11-24T01:03:52.117Z,35.60
2022-11-24T01:06:24.284Z,29.13
2022-11-24T01:08:51.660Z,32.97
2022-11-24T01:11:24.576Z,26.65
2022-11-24T01:13:58.093Z,31.10
2022-11-24T01:16:29.669Z,35.50
2022-11-24T01:18:57.015Z,31.10
2022-11-24T01:21:24.213Z,29.20
2022-11-24T01:23:51.892Z,32.08
2022-11-24T01:26:21.950Z,21.80
2022-11-24T01:28:54.382Z,29.67
2022-11-24T01:31:22.389Z,36.35
2022-11-24T01:33:49.588Z,32.70
2022-11-24T01:36:16.771Z,26.92
2022-11-24T01:38:44.149Z,30.20
2022-11-24T01:41:16.161Z,24.85
2022-11-24T01:43:45.413Z,22.52
2022-11-24T01:46:47.277Z,22.80
2022-11-24T01:49:24.814Z,22.35
2022-11-24T01:51:58.029Z,20.10
2022-11-24T01:54:36.396Z,18.55
2022-11-24T01:57:16.528Z,21.48
2022-11-24T01:59:47.122Z,22.40
2022-11-24T02:02:17.701Z,27.38
2022-11-24T02:04:46.175Z,28.02
2022-11-24T02:07:14.701Z,22.73
2022-11-24T02:10:03.103Z,24.13
2022-11-24T02:12:33.120Z,26.20
2022-11-24T02:15:21.337Z,24.05
2022-11-24T02:17:48.539Z,19.05
2022-11-24T02:20:16.941Z,29.67
2022-11-24T02:22:59.653Z,27.83
2022-11-24T02:25:45.318Z,29.90
2022-11-24T02:28:19.721Z,30.05
2022-11-24T02:30:47.410Z,35.28
2022-11-24T02:33:15.342Z,36.42
2022-11-24T02:35:43.223Z,31.77
2022-11-24T02:38:13.679Z,29.77
2022-11-24T02:40:46.838Z,21.83
2022-11-24T02:43:17.991Z,20.48
2022-11-24T02:45:45.428Z,18.88
2022-11-24T02:48:14.787Z,20.38
2022-11-24T02:50:42.102Z,19.70
2022-11-24T02:53:09.275Z,15.13
2022-11-24T02:55:36.454Z,19.25
2022-11-24T02:58:03.696Z,21.73
2022-11-24T03:00:30.986Z,17.30
2022-11-24T03:02:58.742Z,22.55
2022-11-24T03:05:26.593Z,23.05
2022-11-24T03:07:53.984Z,22.05
2022-11-24T03:10:21.231Z,22.70
2022-11-24T03:12:48.428Z,26.67
2022-11-24T03:15:15.488Z,21.58
2022-11-24T03:17:42.717Z,19.77
2022-11-24T03:20:10.640Z,26.15
2022-11-24T03:22:38.071Z,25.48
2022-11-24T03:25:05.728Z,22.98
2022-11-24T03:27:33.026Z,23.23
2022-11-24T03:30:00.186Z,21.77
2022-11-24T03:32:27.523Z,20.85
2022-11-24T03:34:54.671Z,26.50
2022-11-24T03:37:22.710Z,19.75
2022-11-24T03:39:49.937Z,25.70
2022-11-24T03:42:17.187Z,28.10
2022-11-24T03:44:44.340Z,27.67
2022-11-24T03:47:12.818Z,27.65
2022-11-24T03:49:41.596Z,22.42
2022-11-24T03:52:09.324Z,27.33
2022-11-24T03:54:36.682Z,27.48
2022-11-24T03:57:03.926Z,27.38
2022-11-24T03:59:31.095Z,25.88
2022-11-24T04:01:58.430Z,36.40
2022-11-24T04:04:25.663Z,33.17
2022-11-24T04:06:52.703Z,30.10
2022-11-24T04:09:19.896Z,28.80
2022-11-24T04:12:05.377Z,22.27
2022-11-24T04:14:32.716Z,29.67
2022-11-24T04:17:00.190Z,24.20
2022-11-24T04:19:27.183Z,18.95
2022-11-24T04:21:54.324Z,25.58
2022-11-24T04:24:21.339Z,25.27
2022-11-24T04:26:48.415Z,27.50
2022-11-24T04:29:15.374Z,28.92
2022-11-24T04:31:42.440Z,29.25
2022-11-24T04:34:09.551Z,24.92
2022-11-24T04:36:36.529Z,26.80
2022-11-24T04:39:25.005Z,23.45
2022-11-24T04:41:50.655Z,27.13
2022-11-24T04:44:17.654Z,24.88
2022-11-24T04:46:44.730Z,22.48
2022-11-24T04:49:12.013Z,25.98
2022-11-24T04:51:40.193Z,29.58
2022-11-24T04:54:08.233Z,24.92
2022-11-24T04:56:35.246Z,22.73
2022-11-24T04:59:07.863Z,24.55
2022-11-24T05:01:35.757Z,23.58
2022-11-24T05:04:02.881Z,29.52
2022-11-24T05:06:30.122Z,26.75
2022-11-24T05:08:57.114Z,25.27
2022-11-24T05:11:24.086Z,22.80
2022-11-24T05:13:53.167Z,34.67
2022-11-24T05:16:20.379Z,26.30
2022-11-24T05:18:47.543Z,23.48
2022-11-24T05:21:14.967Z,28.13
2022-11-24T05:23:42.135Z,23.25
2022-11-24T05:26:09.327Z,28.67
2022-11-24T05:28:36.401Z,27.33
2022-11-24T05:31:04.662Z,26.63
2022-11-24T05:33:33.534Z,22.52
2022-11-24T05:36:03.008Z,26.38
2022-11-24T05:38:30.745Z,17.98
2022-11-24T05:41:02.699Z,26.50
2022-11-24T05:43:30.136Z,23.73
2022-11-24T05:46:00.927Z,24.98
2022-11-24T05:48:28.297Z,24.75
2022-11-24T05:50:56.510Z,23.50
2022-11-24T05:53:24.275Z,21.70
2022-11-24T05:55:51.412Z,28.88
2022-11-24T05:58:18.431Z,26.38
2022-11-24T06:00:45.885Z,25.13
2022-11-24T06:03:13.352Z,31.80
2022-11-24T06:05:40.386Z,25.75
2022-11-24T06:08:07.419Z,30.17
2022-11-24T06:10:34.283Z,30.27
2022-11-24T06:13:06.318Z,28.02
2022-11-24T06:15:34.220Z,28.67
2022-11-24T06:18:01.219Z,26.35
2022-11-24T06:20:32.421Z,25.20
2022-11-24T06:23:01.015Z,28.85
2022-11-24T06:25:29.373Z,31.00
2022-11-24T06:27:56.406Z,33.00
2022-11-24T06:30:23.391Z,34.55
2022-11-24T06:32:55.039Z,30.33
2022-11-24T06:35:22.009Z,31.92
2022-11-24T06:37:48.958Z,33.70
2022-11-24T06:40:16.283Z,30.77
2022-11-24T06:42:43.268Z,30.15
2022-11-24T06:45:10.522Z,30.08
2022-11-24T06:47:37.505Z,30.42
2022-11-24T06:50:04.905Z,33.35
2022-11-24T06:52:31.904Z,28.33
2022-11-24T06:54:58.954Z,26.00
2022-11-24T06:57:29.560Z,28.00
2022-11-24T06:59:57.409Z,31.45
2022-11-24T07:02:24.664Z,34.60
2022-11-24T07:04:51.758Z,30.92
2022-11-24T07:07:18.792Z,37.30
2022-11-24T07:09:45.798Z,35.90
2022-11-24T07:12:12.809Z,29.95
2022-11-24T07:14:39.788Z,35.90
2022-11-24T07:17:07.564Z,30.95
2022-11-24T07:19:34.511Z,26.65
2022-11-24T07:22:01.526Z,38.95
2022-11-24T07:24:28.487Z,26.73
2022-11-24T07:26:55.430Z,37.38
2022-11-24T07:29:22.381Z,35.97
2022-11-24T07:31:50.251Z,30.75
2022-11-24T07:34:17.369Z,34.72
2022-11-24T07:36:45.289Z,36.33
2022-11-24T07:39:12.406Z,34.00
2022-11-24T07:41:39.393Z,27.17
2022-11-24T07:44:06.422Z,29.98
2022-11-24T07:46:33.432Z,35.53
2022-11-24T07:49:00.445Z,35.78
2022-11-24T07:51:27.420Z,40.17
2022-11-24T07:53:54.355Z,33.00
2022-11-24T07:56:24.570Z,32.67
2022-11-24T08:01:20.909Z,35.72
2022-11-24T08:03:47.975Z,32.08
2022-11-24T08:06:26.102Z,34.13
2022-11-24T08:08:55.495Z,42.45
2022-11-24T08:11:22.826Z,34.20
2022-11-24T08:13:49.861Z,32.80
2022-11-24T08:16:19.163Z,36.03
2022-11-24T08:18:54.555Z,32.03
2022-11-24T08:21:23.638Z,33.33
2022-11-24T08:23:55.654Z,31.63
2022-11-24T08:26:25.088Z,38.17
2022-11-24T08:28:59.351Z,36.70
2022-11-24T08:31:33.654Z,33.40
2022-11-24T08:34:02.405Z,39.70
2022-11-24T08:36:29.389Z,57.58
2022-11-24T08:38:58.906Z,38.40
2022-11-24T08:41:27.120Z,36.83
2022-11-24T08:43:55.083Z,29.50
2022-11-24T08:46:22.588Z,33.03
2022-11-24T08:48:51.730Z,32.30
2022-11-24T08:51:25.162Z,31.10
2022-11-24T08:54:00.184Z,32.50
2022-11-24T08:56:28.735Z,26.58
2022-11-24T08:58:56.829Z,27.40
2022-11-24T09:01:25.045Z,28.38
2022-11-24T09:03:53.073Z,28.02
2022-11-24T09:06:23.723Z,33.25
2022-11-24T09:08:54.643Z,29.50
2022-11-24T09:11:22.420Z,29.90
2022-11-24T09:13:49.697Z,34.58
2022-11-24T09:16:20.337Z,33.65
2022-11-24T09:18:48.478Z,30.83
2022-11-24T09:21:22.282Z,27.88
2022-11-24T09:23:50.811Z,31.92
2022-11-24T09:26:24.201Z,28.63
2022-11-24T09:28:54.663Z,34.65
2022-11-24T09:31:24.365Z,26.30
2022-11-24T09:33:52.589Z,29.65
2022-11-24T09:36:20.473Z,27.90
2022-11-24T09:38:47.603Z,25.17
2022-11-24T09:41:26.366Z,24.58
2022-11-24T09:44:15.009Z,26.27
2022-11-24T09:46:49.858Z,34.05
2022-11-24T09:49:24.358Z,27.45
2022-11-24T09:51:55.338Z,34.50
2022-11-24T09:54:26.716Z,27.42
2022-11-24T09:56:55.467Z,31.23
2022-11-24T09:59:24.388Z,31.33
2022-11-24T10:01:52.407Z,25.52
2022-11-24T10:04:42.373Z,27.55
2022-11-24T10:07:12.263Z,27.17
2022-11-24T10:09:44.874Z,24.50
2022-11-24T10:12:32.980Z,23.35
2022-11-24T10:15:22.665Z,31.45
2022-11-24T10:18:01.381Z,28.85
2022-11-24T10:20:31.332Z,29.17
2022-11-24T10:23:10.699Z,32.25
2022-11-24T10:25:57.933Z,32.42
2022-11-24T10:28:40.148Z,34.53
2022-11-24T10:31:12.987Z,31.50
2022-11-24T10:33:41.963Z,19.80
2022-11-24T10:36:17.001Z,33.50
2022-11-24T10:39:03.170Z,29.30
2022-11-24T10:42:02.925Z,34.15
2022-11-24T10:44:30.030Z,34.42
2022-11-24T10:46:57.565Z,33.85
2022-11-24T10:49:29.766Z,32.55
2022-11-24T10:52:05.972Z,36.15
2022-11-24T10:54:36.000Z,28.65
2022-11-24T10:57:03.522Z,37.70
2022-11-24T10:59:37.958Z,31.30
2022-11-24T11:02:31.699Z,29.98
2022-11-24T11:04:58.943Z,33.38
2022-11-24T11:07:27.239Z,30.15
2022-11-24T11:10:21.305Z,34.75
2022-11-24T11:12:49.825Z,36.22
2022-11-24T11:15:30.317Z,28.63
2022-11-24T11:17:59.522Z,33.80
2022-11-24T11:20:32.719Z,35.95
2022-11-24T11:23:05.111Z,36.95
2022-11-24T11:25:36.341Z,34.05
2022-11-24T11:28:18.176Z,37.20
2022-11-24T11:31:22.760Z,32.88
2022-11-24T11:34:06.441Z,40.28
2022-11-24T11:36:41.256Z,23.83
2022-11-24T11:39:20.733Z,35.38
2022-11-24T11:41:50.351Z,33.83
2022-11-24T11:44:36.091Z,27.02
2022-11-24T11:47:14.194Z,29.90
2022-11-24T11:49:41.255Z,37.00
2022-11-24T11:52:25.359Z,33.67
2022-11-24T11:55:04.960Z,33.42
2022-11-24T11:57:31.902Z,32.05
2022-11-24T12:00:18.957Z,40.05
2022-11-24T12:03:23.250Z,30.27
2022-11-24T12:06:28.116Z,32.65
2022-11-24T12:09:22.440Z,30.17
2022-11-24T12:12:26.981Z,35.22
2022-11-24T12:15:24.726Z,28.55
2022-11-24T12:18:40.314Z,38.10
2022-11-24T12:21:26.420Z,34.15
2022-11-24T12:24:22.788Z,34.83
2022-11-24T12:26:59.444Z,39.08
2022-11-24T12:29:34.353Z,33.95
2022-11-24T12:32:23.952Z,28.25
2022-11-24T12:35:09.135Z,36.47
2022-11-24T12:37:48.726Z,34.92
2022-11-24T12:40:46.385Z,35.00
2022-11-24T12:43:26.806Z,37.08
2022-11-24T12:45:58.149Z,35.30
2022-11-24T12:48:33.661Z,27.25
2022-11-24T12:51:01.552Z,33.10
2022-11-24T12:53:32.957Z,36.58
2022-11-24T12:56:07.554Z,32.35
2022-11-24T12:58:50.414Z,36.97
2022-11-24T13:01:35.847Z,35.35
2022-11-24T13:04:34.370Z,33.10
2022-11-24T13:07:09.487Z,32.58
2022-11-24T13:09:36.806Z,34.22
2022-11-24T13:12:14.587Z,31.00
2022-11-24T13:14:44.435Z,32.55
2022-11-24T13:18:05.230Z,33.33
2022-11-24T13:20:39.083Z,32.13
2022-11-24T13:23:09.531Z,38.20
2022-11-24T13:25:39.645Z,37.42
2022-11-24T13:28:06.932Z,42.10
2022-11-24T13:30:33.918Z,35.15
2022-11-24T13:33:03.036Z,31.83
2022-11-24T13:35:30.561Z,31.75
2022-11-24T13:37:57.840Z,41.42
2022-11-24T13:40:26.501Z,26.40
2022-11-24T13:42:57.357Z,34.05
2022-11-24T13:45:54.106Z,36.97
2022-11-24T13:48:21.748Z,38.53
2022-11-24T13:50:56.221Z,33.40
2022-11-24T13:53:32.541Z,36.05
2022-11-24T13:56:15.135Z,34.90
2022-11-24T13:58:44.395Z,30.13
2022-11-24T14:01:19.617Z,34.53
2022-11-24T14:06:55.572Z,31.60
2022-11-24T14:09:27.386Z,26.52
2022-11-24T14:12:08.275Z,36.30
2022-11-24T14:14:35.504Z,29.13
2022-11-24T14:17:28.572Z,33.78
2022-11-24T14:19:57.506Z,39.55
2022-11-24T14:22:40.368Z,38.30
2022-11-24T14:25:23.114Z,44.78
2022-11-24T14:27:50.233Z,40.28
2022-11-24T14:30:20.808Z,43.85
2022-11-24T14:32:58.938Z,34.20
2022-11-24T14:35:35.272Z,42.10
2022-11-24T14:38:04.515Z,37.45
2022-11-24T14:40:55.737Z,35.10
2022-11-24T14:43:30.514Z,41.00
2022-11-24T14:46:01.395Z,36.90
2022-11-24T14:48:31.604Z,35.20
2022-11-24T14:51:06.239Z,42.17
2022-11-24T14:53:34.472Z,28.02
2022-11-24T14:56:32.474Z,30.25
2022-11-24T14:58:59.584Z,34.78
2022-11-24T15:01:29.703Z,33.95
2022-11-24T15:07:16.300Z,38.50
2022-11-24T15:09:55.446Z,42.17
2022-11-24T15:12:31.703Z,41.78
2022-11-24T15:15:02.170Z,32.50
2022-11-24T15:17:31.562Z,37.47
2022-11-24T15:20:26.439Z,32.92
2022-11-24T15:23:19.257Z,34.17
2022-11-24T15:25:46.250Z,33.78
2022-11-24T15:28:13.226Z,35.15
2022-11-24T15:30:40.238Z,33.55
2022-11-24T15:33:18.118Z,34.67
2022-11-24T15:35:45.992Z,33.47
2022-11-24T15:38:13.052Z,30.38
2022-11-24T15:40:42.686Z,80.30
2022-11-24T15:43:35.353Z,42.20
2022-11-24T15:46:04.365Z,28.00
2022-11-24T15:48:31.487Z,21.10
2022-11-24T15:51:01.342Z,23.85
2022-11-24T15:53:39.224Z,27.33
2022-11-24T15:56:15.260Z,28.33
2022-11-24T15:58:42.237Z,29.98
2022-11-24T16:01:09.249Z,33.15
2022-11-24T16:03:46.821Z,31.40
2022-11-24T16:06:24.715Z,33.05
2022-11-24T16:08:55.317Z,19.52
2022-11-24T16:11:23.235Z,26.48
2022-11-24T16:13:53.465Z,28.88
2022-11-24T16:16:23.096Z,26.38
2022-11-24T16:18:50.861Z,25.02
2022-11-24T16:21:18.145Z,23.70
2022-11-24T16:23:45.779Z,21.65
2022-11-24T16:26:12.907Z,30.50
2022-11-24T16:28:40.753Z,30.08
2022-11-24T16:31:07.750Z,25.10
2022-11-24T16:33:34.900Z,26.95
2022-11-24T16:36:01.887Z,21.92
2022-11-24T16:38:28.877Z,23.80
2022-11-24T16:40:57.001Z,23.70
2022-11-24T16:43:24.780Z,19.92
2022-11-24T16:46:23.703Z,22.63
2022-11-24T16:48:53.365Z,16.55
2022-11-24T16:51:23.002Z,20.45
2022-11-24T16:54:00.609Z,16.65
2022-11-24T16:56:28.996Z,15.60
2022-11-24T16:58:56.030Z,21.00
2022-11-24T17:01:23.323Z,23.35
2022-11-24T17:03:50.533Z,21.13
2022-11-24T17:06:18.109Z,25.50
2022-11-24T17:08:46.643Z,30.10
2022-11-24T17:11:18.194Z,15.95
2022-11-24T17:13:47.453Z,28.30
2022-11-24T17:16:17.726Z,18.35
2022-11-24T17:21:15.876Z,21.02
2022-11-24T17:23:43.342Z,37.47
2022-11-24T17:26:19.807Z,26.08
2022-11-24T17:28:47.301Z,19.48
2022-11-24T17:31:17.259Z,20.10
2022-11-24T17:33:44.419Z,14.18
2022-11-24T17:36:11.767Z,19.42
2022-11-24T17:38:39.118Z,23.00
2022-11-24T17:41:06.413Z,20.27
2022-11-24T17:43:33.572Z,20.20
2022-11-24T17:46:02.364Z,22.23
2022-11-24T17:48:30.984Z,19.88
2022-11-24T17:51:10.128Z,20.08
2022-11-24T17:53:37.694Z,13.00
2022-11-24T17:56:06.189Z,16.25
2022-11-24T17:58:39.707Z,22.98
2022-11-24T18:01:10.715Z,19.23
2022-11-24T18:03:39.801Z,20.13
2022-11-24T18:06:12.422Z,17.55
2022-11-24T18:08:44.030Z,20.50
2022-11-24T18:11:25.949Z,23.05
2022-11-24T18:14:01.191Z,17.77
2022-11-24T18:16:31.293Z,20.92
2022-11-24T18:19:08.811Z,17.27
2022-11-24T18:21:41.060Z,22.08
2022-11-24T18:24:09.353Z,23.05
2022-11-24T18:26:36.976Z,25.33
2022-11-24T18:29:05.009Z,25.20
2022-11-24T18:31:34.413Z,28.63
2022-11-24T18:34:02.513Z,25.98
2022-11-24T18:36:32.901Z,27.65
2022-11-24T18:39:08.663Z,26.63
2022-11-24T18:41:36.211Z,19.20
2022-11-24T18:44:08.341Z,27.88
2022-11-24T18:46:38.708Z,26.77
2022-11-24T18:51:34.736Z,25.58
2022-11-24T18:54:04.037Z,28.02
2022-11-24T18:56:31.644Z,23.85
2022-11-24T18:58:59.147Z,28.92
2022-11-24T19:01:28.936Z,27.20
2022-11-24T19:03:58.349Z,25.50
2022-11-24T19:06:32.031Z,25.63
2022-11-24T19:09:01.300Z,24.10
2022-11-24T19:11:32.669Z,22.20
2022-11-24T19:14:00.994Z,29.42
2022-11-24T19:16:28.886Z,26.70
2022-11-24T19:19:00.279Z,22.23
2022-11-24T19:21:30.702Z,32.35
2022-11-24T19:24:04.212Z,26.77
2022-11-24T19:26:32.509Z,26.10
2022-11-24T19:28:59.454Z,22.90
2022-11-24T19:31:26.721Z,25.73
2022-11-24T19:33:54.779Z,21.40
2022-11-24T19:36:22.981Z,21.92
2022-11-24T19:38:52.069Z,19.88
2022-11-24T19:41:21.162Z,23.00
2022-11-24T19:43:48.734Z,22.38
2022-11-24T19:46:18.624Z,14.77
2022-11-24T19:48:50.112Z,29.80
2022-11-24T19:51:20.063Z,21.45
2022-11-24T19:53:47.963Z,23.83
2022-11-24T19:56:23.536Z,21.13
2022-11-24T19:58:51.297Z,21.77
2022-11-24T20:01:24.794Z,17.95
2022-11-24T20:04:13.670Z,23.75
2022-11-24T20:06:43.127Z,19.13
2022-11-24T20:09:16.116Z,20.35
2022-11-24T20:11:43.401Z,19.60
2022-11-24T20:14:12.470Z,22.92
2022-11-24T20:16:39.871Z,19.08
2022-11-24T20:19:10.666Z,20.17
2022-11-24T20:21:38.902Z,21.45
2022-11-24T20:24:06.166Z,20.67
2022-11-24T20:26:36.582Z,19.27
2022-11-24T20:29:05.048Z,19.45
2022-11-24T20:31:35.385Z,16.33
2022-11-24T20:34:04.388Z,19.15
2022-11-24T20:36:34.132Z,19.20
2022-11-24T20:39:02.666Z,17.88
2022-11-24T20:41:33.773Z,15.93
2022-11-24T20:44:05.147Z,14.88
2022-11-24T20:46:34.338Z,14.35
2022-11-24T20:49:03.553Z,17.02
2022-11-24T20:51:34.070Z,15.43
2022-11-24T20:54:04.904Z,18.05
2022-11-24T20:56:37.870Z,15.10
2022-11-24T20:59:04.960Z,17.25
2022-11-24T21:01:43.643Z,17.08
2022-11-24T21:04:13.401Z,14.18
2022-11-24T21:06:40.855Z,13.38
2022-11-24T21:09:09.562Z,13.25
2022-11-24T21:11:37.788Z,13.63
2022-11-24T21:14:05.401Z,16.23
2022-11-24T21:16:34.734Z,15.57
2022-11-24T21:19:06.782Z,15.75
2022-11-24T21:21:35.636Z,16.02
2022-11-24T21:24:16.336Z,16.70
2022-11-24T21:26:47.512Z,13.90
2022-11-24T21:29:17.286Z,12.88
2022-11-24T21:31:44.346Z,16.25
2022-11-24T21:34:15.161Z,15.45
2022-11-24T21:36:44.953Z,12.32
2022-11-24T21:39:13.777Z,12.65
2022-11-24T21:41:41.104Z,14.45
2022-11-24T21:44:08.939Z,15.32
2022-11-24T21:46:44.186Z,12.30
2022-11-24T21:49:15.059Z,13.52
2022-11-24T21:51:42.082Z,14.32
2022-11-24T21:54:09.387Z,11.93
2022-11-24T21:56:36.459Z,13.60
2022-11-24T21:59:03.347Z,12.60
2022-11-24T22:01:30.463Z,12.55
2022-11-24T22:03:57.533Z,7.70
2022-11-24T22:06:24.945Z,12.02
2022-11-24T22:08:52.238Z,9.13
2022-11-24T22:11:22.189Z,10.75
2022-11-24T22:13:49.589Z,11.15
2022-11-24T22:16:19.441Z,9.68
2022-11-24T22:18:46.693Z,15.90
2022-11-24T22:21:16.035Z,13.07
2022-11-24T22:23:43.668Z,12.30
2022-11-24T22:26:20.513Z,15.32
2022-11-24T22:28:47.665Z,15.68
2022-11-24T22:31:17.121Z,13.95
2022-11-24T22:33:44.523Z,13.82
2022-11-24T22:36:13.232Z,13.15
2022-11-24T22:38:41.033Z,11.02
2022-11-24T22:41:10.955Z,16.05
2022-11-24T22:43:40.212Z,16.20
2022-11-24T22:46:13.004Z,14.55
2022-11-24T22:48:41.106Z,11.38
2022-11-24T22:51:13.738Z,11.88
2022-11-24T22:53:41.481Z,16.27
2022-11-24T22:56:11.992Z,14.35
2022-11-24T22:58:40.085Z,17.83
2022-11-24T23:01:15.850Z,17.05
2022-11-24T23:03:43.896Z,19.40
2022-11-24T23:06:31.643Z,17.85
2022-11-24T23:09:00.166Z,14.85
2022-11-24T23:11:36.348Z,16.90
2022-11-24T23:14:04.358Z,23.20
2022-11-24T23:16:31.555Z,18.63
2022-11-24T23:18:58.892Z,26.67
2022-11-24T23:21:28.732Z,21.83
2022-11-24T23:23:56.586Z,17.38
2022-11-24T23:26:26.761Z,16.70
2022-11-24T23:31:24.619Z,20.60
2022-11-24T23:33:51.649Z,19.25
2022-11-24T23:36:20.143Z,28.75
2022-11-24T23:38:48.511Z,20.63
2022-11-24T23:41:19.095Z,22.30
2022-11-24T23:43:46.771Z,21.33
2022-11-24T23:46:15.851Z,16.35
2022-11-24T23:48:43.491Z,19.30
2022-11-24T23:51:15.544Z,20.73
2022-11-24T23:53:43.341Z,23.23
2022-11-24T23:56:15.227Z,23.13
2022-11-24T23:58:42.727Z,15.52
